createdAt,value
2018-02-27T00:02:05.165Z,21.48
2018-02-27T00:04:31.952Z,19.55
2018-02-27T00:06:58.698Z,22.20
2018-02-27T00:09:26.370Z,24.08
2018-02-27T00:11:53.125Z,19.90
2018-02-27T00:14:19.881Z,22.40
2018-02-27T00:16:46.619Z,22.60
2018-02-27T00:19:13.346Z,20.50
2018-02-27T00:21:40.089Z,23.10
2018-02-27T00:24:06.828Z,17.42
2018-02-27T00:26:33.594Z,21.90
2018-02-27T00:29:00.329Z,16.05
2018-02-27T00:31:27.061Z,23.87
2018-02-27T00:33:53.797Z,18.17
2018-02-27T00:36:20.547Z,18.83
2018-02-27T00:38:47.276Z,14.38
2018-02-27T00:41:14.014Z,22.67
2018-02-27T00:43:40.732Z,18.45
2018-02-27T00:46:07.499Z,21.65
2018-02-27T00:48:34.250Z,23.27
2018-02-27T00:51:00.987Z,29.12
2018-02-27T00:53:27.726Z,18.87
2018-02-27T00:55:54.456Z,25.33
2018-02-27T00:58:21.228Z,20.67
2018-02-27T01:00:47.956Z,18.00
2018-02-27T01:03:14.672Z,20.80
2018-02-27T01:05:41.402Z,19.85
2018-02-27T01:08:08.114Z,22.62
2018-02-27T01:10:34.877Z,19.33
2018-02-27T01:13:01.621Z,19.85
2018-02-27T01:15:28.348Z,20.60
2018-02-27T01:17:55.093Z,21.62
2018-02-27T01:20:21.827Z,19.73
2018-02-27T01:22:48.550Z,21.15
2018-02-27T01:25:15.291Z,22.48
2018-02-27T01:27:42.017Z,27.17
2018-02-27T01:30:08.758Z,23.10
2018-02-27T01:32:35.507Z,20.80
2018-02-27T01:35:02.237Z,23.45
2018-02-27T01:37:28.986Z,17.75
2018-02-27T01:39:55.705Z,22.35
2018-02-27T01:42:22.435Z,24.30
2018-02-27T01:44:49.173Z,19.77
2018-02-27T01:47:15.889Z,20.37
2018-02-27T01:49:42.611Z,26.15
2018-02-27T01:52:09.351Z,21.08
2018-02-27T01:54:36.134Z,25.90
2018-02-27T01:57:02.851Z,22.25
2018-02-27T01:59:29.584Z,21.10
2018-02-27T02:01:56.311Z,26.27
2018-02-27T02:04:23.040Z,26.40
2018-02-27T02:06:49.805Z,21.92
2018-02-27T02:09:16.553Z,24.17
2018-02-27T02:11:43.279Z,21.40
2018-02-27T02:14:10.028Z,25.27
2018-02-27T02:16:36.767Z,23.45
2018-02-27T02:19:03.482Z,22.27
2018-02-27T02:21:30.246Z,21.27
2018-02-27T02:23:56.995Z,24.65
2018-02-27T02:26:23.732Z,20.20
2018-02-27T02:28:50.472Z,21.52
2018-02-27T02:31:17.222Z,22.92
2018-02-27T02:33:43.927Z,25.45
2018-02-27T02:36:10.655Z,26.20
2018-02-27T02:38:37.405Z,33.30
2018-02-27T02:41:04.154Z,24.92
2018-02-27T02:43:30.911Z,21.27
2018-02-27T02:45:57.621Z,23.15
2018-02-27T02:48:24.355Z,21.25
2018-02-27T02:50:51.076Z,20.17
2018-02-27T02:53:17.784Z,22.85
2018-02-27T02:55:44.529Z,26.67
2018-02-27T02:58:11.248Z,22.95
2018-02-27T03:00:37.991Z,21.98
2018-02-27T03:03:04.705Z,29.75
2018-02-27T03:05:31.420Z,20.12
2018-02-27T03:07:58.143Z,23.15
2018-02-27T03:10:24.902Z,20.85
2018-02-27T03:12:51.634Z,28.12
2018-02-27T03:15:18.369Z,20.48
2018-02-27T03:17:45.089Z,22.42
2018-02-27T03:20:11.833Z,19.60
2018-02-27T03:22:38.575Z,25.27
2018-02-27T03:25:05.340Z,24.48
2018-02-27T03:27:32.062Z,22.70
2018-02-27T03:29:58.786Z,29.15
2018-02-27T03:32:25.510Z,23.42
2018-02-27T03:34:52.228Z,23.08
2018-02-27T03:37:18.938Z,25.67
2018-02-27T03:39:45.693Z,22.60
2018-02-27T03:42:12.421Z,21.35
2018-02-27T03:44:39.166Z,20.73
2018-02-27T03:47:05.905Z,22.83
2018-02-27T03:49:32.625Z,20.62
2018-02-27T03:51:59.349Z,20.17
2018-02-27T03:54:26.096Z,22.65
2018-02-27T03:56:52.832Z,25.37
2018-02-27T03:59:19.569Z,28.05
2018-02-27T04:01:46.321Z,23.62
2018-02-27T04:04:13.063Z,24.42
2018-02-27T04:06:39.799Z,21.80
2018-02-27T04:09:06.530Z,22.85
2018-02-27T04:11:33.278Z,23.98
2018-02-27T04:14:00.011Z,24.30
2018-02-27T04:16:26.774Z,31.55
2018-02-27T04:18:53.505Z,24.23
2018-02-27T04:21:20.257Z,27.73
2018-02-27T04:23:46.979Z,28.27
2018-02-27T04:26:13.737Z,27.70
2018-02-27T04:28:40.471Z,23.30
2018-02-27T04:31:07.240Z,25.65
2018-02-27T04:33:33.963Z,23.48
2018-02-27T04:36:00.712Z,25.90
2018-02-27T04:38:27.464Z,21.08
2018-02-27T04:40:54.201Z,19.85
2018-02-27T04:43:20.939Z,26.17
2018-02-27T04:45:47.657Z,29.73
2018-02-27T04:48:14.527Z,27.10
2018-02-27T04:50:41.283Z,20.80
2018-02-27T04:53:08.002Z,21.30
2018-02-27T04:55:34.835Z,23.95
2018-02-27T04:58:01.555Z,26.73
2018-02-27T05:00:28.316Z,33.72
2018-02-27T05:02:55.043Z,22.67
2018-02-27T05:05:21.763Z,22.52
2018-02-27T05:07:48.539Z,24.15
2018-02-27T05:10:15.258Z,26.30
2018-02-27T05:12:42.003Z,28.38
2018-02-27T05:15:08.740Z,21.98
2018-02-27T05:17:35.470Z,30.65
2018-02-27T05:20:02.229Z,27.27
2018-02-27T05:22:28.966Z,23.42
2018-02-27T05:24:55.680Z,26.02
2018-02-27T05:27:22.423Z,21.42
2018-02-27T05:29:49.150Z,22.08
2018-02-27T05:32:15.890Z,23.30
2018-02-27T05:34:42.739Z,38.10
2018-02-27T05:37:09.471Z,33.20
2018-02-27T05:39:36.213Z,22.00
2018-02-27T05:42:02.936Z,24.50
2018-02-27T05:44:29.668Z,25.27
2018-02-27T05:46:56.405Z,25.83
2018-02-27T05:49:23.143Z,30.42
2018-02-27T05:51:49.897Z,28.30
2018-02-27T05:54:16.618Z,28.35
2018-02-27T05:56:43.380Z,29.08
2018-02-27T05:59:10.095Z,30.52
2018-02-27T06:01:36.866Z,24.63
2018-02-27T06:04:03.599Z,28.25
2018-02-27T06:06:30.317Z,24.52
2018-02-27T06:08:57.073Z,25.20
2018-02-27T06:11:23.796Z,29.25
2018-02-27T06:13:50.558Z,21.40
2018-02-27T06:16:17.273Z,26.08
2018-02-27T06:18:44.022Z,22.67
2018-02-27T06:21:10.849Z,30.70
2018-02-27T06:23:37.606Z,28.35
2018-02-27T06:26:04.343Z,25.25
2018-02-27T06:28:31.077Z,29.02
2018-02-27T06:30:57.816Z,30.02
2018-02-27T06:33:24.581Z,26.92
2018-02-27T06:35:51.347Z,27.87
2018-02-27T06:38:18.063Z,23.23
2018-02-27T06:40:44.782Z,22.62
2018-02-27T06:43:11.543Z,25.45
2018-02-27T06:45:38.284Z,22.60
2018-02-27T06:48:05.005Z,25.48
2018-02-27T06:50:31.741Z,24.10
2018-02-27T06:52:58.454Z,25.52
2018-02-27T06:55:25.171Z,24.37
2018-02-27T06:57:51.928Z,29.33
2018-02-27T07:00:18.662Z,24.10
2018-02-27T07:02:45.392Z,29.48
2018-02-27T07:05:12.109Z,25.60
2018-02-27T07:07:38.876Z,22.00
2018-02-27T07:10:05.592Z,24.50
2018-02-27T07:12:32.357Z,30.65
2018-02-27T07:14:59.096Z,27.67
2018-02-27T07:17:25.819Z,23.80
2018-02-27T07:19:52.554Z,23.35
2018-02-27T07:22:19.276Z,23.73
2018-02-27T07:24:46.071Z,21.37
2018-02-27T07:27:12.767Z,19.27
2018-02-27T07:29:39.482Z,20.73
2018-02-27T07:32:06.219Z,27.70
2018-02-27T07:34:32.934Z,22.17
2018-02-27T07:36:59.653Z,23.60
2018-02-27T07:39:26.397Z,25.45
2018-02-27T07:41:53.133Z,22.80
2018-02-27T07:44:19.873Z,25.65
2018-02-27T07:46:46.586Z,28.23
2018-02-27T07:49:13.315Z,23.00
2018-02-27T07:51:40.045Z,23.10
2018-02-27T07:54:06.807Z,29.12
2018-02-27T07:56:33.531Z,28.45
2018-02-27T07:59:00.233Z,27.55
2018-02-27T08:01:26.977Z,23.25
2018-02-27T08:03:53.709Z,27.80
2018-02-27T08:06:20.495Z,25.17
2018-02-27T08:08:47.211Z,29.65
2018-02-27T08:11:13.930Z,22.25
2018-02-27T08:13:40.662Z,28.40
2018-02-27T08:16:07.370Z,21.73
2018-02-27T08:18:34.104Z,25.52
2018-02-27T08:21:00.825Z,27.45
2018-02-27T08:23:27.546Z,24.63
2018-02-27T08:25:54.270Z,28.52
2018-02-27T08:28:20.990Z,31.92
2018-02-27T08:30:47.732Z,33.55
2018-02-27T08:33:14.434Z,32.17
2018-02-27T08:35:41.164Z,26.73
2018-02-27T08:38:10.739Z,26.02
2018-02-27T08:40:37.462Z,22.30
2018-02-27T08:43:04.201Z,26.95
2018-02-27T08:45:31.830Z,27.85
2018-02-27T08:47:58.550Z,25.80
2018-02-27T08:50:25.266Z,25.45
2018-02-27T08:52:52.024Z,32.58
2018-02-27T08:55:18.732Z,31.98
2018-02-27T08:57:45.462Z,25.02
2018-02-27T09:00:12.218Z,26.48
2018-02-27T09:02:38.926Z,25.02
2018-02-27T09:05:05.692Z,23.23
2018-02-27T09:07:32.414Z,28.08
2018-02-27T09:09:59.172Z,22.70
2018-02-27T09:12:25.910Z,24.95
2018-02-27T09:14:52.654Z,25.55
2018-02-27T09:17:19.395Z,31.42
2018-02-27T09:19:46.126Z,27.75
2018-02-27T09:22:12.845Z,25.77
2018-02-27T09:24:39.563Z,30.37
2018-02-27T09:27:06.282Z,26.95
2018-02-27T09:29:33.026Z,25.05
2018-02-27T09:31:59.731Z,28.55
2018-02-27T09:34:26.428Z,24.27
2018-02-27T09:36:53.184Z,30.10
2018-02-27T09:39:19.880Z,26.87
2018-02-27T09:41:46.608Z,22.90
2018-02-27T09:44:13.674Z,20.27
2018-02-27T09:46:43.921Z,21.50
2018-02-27T09:49:10.627Z,24.00
2018-02-27T09:51:37.350Z,25.35
2018-02-27T09:54:04.100Z,23.02
2018-02-27T09:56:31.021Z,23.00
2018-02-27T09:58:57.836Z,27.60
2018-02-27T10:01:24.518Z,26.37
2018-02-27T10:03:51.261Z,19.62
2018-02-27T10:06:17.978Z,27.65
2018-02-27T10:08:44.684Z,23.85
2018-02-27T10:11:11.405Z,16.25
2018-02-27T10:13:38.181Z,24.55
2018-02-27T10:16:04.936Z,22.17
2018-02-27T10:18:38.488Z,29.10
2018-02-27T10:21:10.668Z,23.80
2018-02-27T10:23:43.507Z,20.33
2018-02-27T10:26:10.212Z,24.45
2018-02-27T10:28:36.996Z,19.92
2018-02-27T10:31:03.708Z,24.90
2018-02-27T10:33:30.494Z,23.33
2018-02-27T10:35:57.269Z,23.87
2018-02-27T10:38:23.942Z,25.65
2018-02-27T10:40:50.696Z,23.92
2018-02-27T10:43:17.612Z,23.40
2018-02-27T10:45:44.347Z,23.00
2018-02-27T10:48:11.072Z,28.83
2018-02-27T10:50:37.764Z,26.83
2018-02-27T10:53:04.492Z,24.65
2018-02-27T10:55:31.209Z,22.25
2018-02-27T10:57:57.926Z,21.73
2018-02-27T11:00:30.469Z,24.92
2018-02-27T11:02:57.183Z,22.77
2018-02-27T11:05:23.957Z,24.12
2018-02-27T11:07:50.711Z,19.67
2018-02-27T11:10:17.429Z,25.85
2018-02-27T11:12:44.165Z,25.37
2018-02-27T11:15:10.962Z,25.12
2018-02-27T11:17:37.721Z,27.30
2018-02-27T11:20:04.474Z,25.77
2018-02-27T11:22:31.248Z,22.80
2018-02-27T11:24:57.984Z,23.52
2018-02-27T11:27:24.806Z,24.85
2018-02-27T11:29:51.532Z,26.52
2018-02-27T11:32:18.257Z,24.52
2018-02-27T11:34:44.995Z,22.80
2018-02-27T11:37:11.743Z,23.40
2018-02-27T11:39:38.450Z,22.37
2018-02-27T11:42:05.185Z,22.83
2018-02-27T11:44:31.939Z,24.35
2018-02-27T11:46:58.685Z,21.48
2018-02-27T11:49:25.464Z,24.35
2018-02-27T11:51:52.206Z,23.38
2018-02-27T11:54:18.953Z,25.10
2018-02-27T11:56:45.743Z,23.92
2018-02-27T11:59:12.472Z,28.98
2018-02-27T12:01:39.224Z,28.02
2018-02-27T12:04:05.966Z,24.92
2018-02-27T12:06:32.724Z,24.58
2018-02-27T12:08:59.492Z,27.15
2018-02-27T12:11:26.443Z,23.85
2018-02-27T12:13:53.203Z,23.40
2018-02-27T12:16:19.998Z,26.40
2018-02-27T12:18:46.795Z,27.67
2018-02-27T12:21:13.582Z,30.27
2018-02-27T12:23:40.357Z,21.80
2018-02-27T12:26:07.109Z,38.65
2018-02-27T12:28:33.837Z,35.13
2018-02-27T12:31:00.905Z,33.53
2018-02-27T12:33:27.676Z,33.47
2018-02-27T12:35:54.414Z,28.52
2018-02-27T12:38:21.162Z,29.90
2018-02-27T12:40:47.903Z,32.53
2018-02-27T12:43:14.614Z,30.77
2018-02-27T12:45:41.367Z,35.20
2018-02-27T12:48:08.074Z,30.95
2018-02-27T12:50:34.789Z,36.75
2018-02-27T12:53:01.517Z,37.33
2018-02-27T12:55:28.217Z,35.22
2018-02-27T12:57:54.941Z,36.92
2018-02-27T13:00:21.642Z,38.08
2018-02-27T13:02:48.373Z,44.30
2018-02-27T13:05:15.118Z,47.75
2018-02-27T13:07:41.818Z,49.05
2018-02-27T13:10:08.553Z,44.65
2018-02-27T13:12:35.265Z,44.20
2018-02-27T13:15:01.994Z,44.47
2018-02-27T13:17:28.736Z,48.87
2018-02-27T13:19:55.457Z,40.12
2018-02-27T13:22:22.220Z,50.17
2018-02-27T13:24:48.931Z,45.17
2018-02-27T13:27:15.639Z,44.78
2018-02-27T13:29:42.356Z,44.35
2018-02-27T13:32:09.092Z,44.35
2018-02-27T13:34:35.819Z,47.53
2018-02-27T13:37:02.521Z,44.78
2018-02-27T13:39:29.252Z,43.45
2018-02-27T13:41:56.020Z,37.30
2018-02-27T13:44:22.713Z,51.25
2018-02-27T13:46:49.434Z,49.85
2018-02-27T13:49:16.151Z,45.33
2018-02-27T13:51:42.857Z,44.33
2018-02-27T13:54:09.574Z,55.00
2018-02-27T13:56:36.304Z,52.65
2018-02-27T13:59:03.013Z,47.20
2018-02-27T14:01:29.759Z,42.50
2018-02-27T14:03:56.475Z,46.47
2018-02-27T14:06:23.170Z,43.83
2018-02-27T14:08:49.892Z,42.13
2018-02-27T14:11:16.602Z,44.65
2018-02-27T14:13:43.330Z,43.08
2018-02-27T14:16:10.066Z,48.30
2018-02-27T14:18:36.790Z,47.62
2018-02-27T14:21:03.547Z,44.85
2018-02-27T14:23:30.299Z,49.40
2018-02-27T14:25:57.029Z,41.90
2018-02-27T14:28:23.889Z,53.83
2018-02-27T14:30:51.063Z,47.65
2018-02-27T14:33:18.063Z,49.70
2018-02-27T14:35:45.200Z,47.38
2018-02-27T14:38:12.163Z,49.03
2018-02-27T14:40:39.162Z,46.50
2018-02-27T14:43:06.246Z,50.42
2018-02-27T14:45:33.081Z,47.20
2018-02-27T14:48:00.065Z,42.78
2018-02-27T14:50:27.137Z,43.35
2018-02-27T14:52:54.814Z,52.88
2018-02-27T14:55:22.203Z,51.25
2018-02-27T14:57:49.011Z,42.60
2018-02-27T15:00:16.720Z,46.55
2018-02-27T15:02:43.916Z,49.97
2018-02-27T15:05:10.851Z,39.75
2018-02-27T15:07:37.860Z,43.85
2018-02-27T15:10:05.048Z,44.13
2018-02-27T15:12:32.258Z,42.60
2018-02-27T15:15:33.532Z,44.60
2018-02-27T15:18:00.613Z,47.97
2018-02-27T15:20:27.452Z,42.75
2018-02-27T15:22:54.443Z,39.65
2018-02-27T15:25:21.288Z,44.20
2018-02-27T15:27:48.183Z,42.95
2018-02-27T15:30:15.442Z,41.90
2018-02-27T15:32:42.394Z,43.63
2018-02-27T15:35:09.157Z,44.88
2018-02-27T15:37:36.223Z,44.22
2018-02-27T15:40:03.713Z,43.47
2018-02-27T15:42:30.514Z,42.28
2018-02-27T15:44:57.384Z,42.78
2018-02-27T15:47:24.470Z,37.83
2018-02-27T15:49:51.386Z,43.63
2018-02-27T15:52:18.460Z,40.83
2018-02-27T15:54:45.585Z,40.53
2018-02-27T15:57:12.463Z,47.75
2018-02-27T15:59:39.386Z,43.80
2018-02-27T16:02:06.255Z,42.90
2018-02-27T16:04:33.163Z,53.22
2018-02-27T16:07:00.190Z,49.70
2018-02-27T16:09:27.042Z,39.40
2018-02-27T16:11:54.110Z,42.30
2018-02-27T16:14:21.289Z,53.60
2018-02-27T16:16:48.267Z,43.55
2018-02-27T16:19:15.176Z,41.80
2018-02-27T16:21:41.953Z,43.13
2018-02-27T16:24:08.861Z,47.30
2018-02-27T16:26:36.210Z,46.70
2018-02-27T16:29:03.207Z,46.47
2018-02-27T16:31:30.376Z,38.50
2018-02-27T16:33:57.272Z,40.70
2018-02-27T16:36:24.258Z,48.05
2018-02-27T16:38:51.366Z,37.95
2018-02-27T16:41:19.148Z,43.55
2018-02-27T16:43:46.332Z,39.13
2018-02-27T16:46:13.250Z,36.70
2018-02-27T16:48:40.228Z,37.20
2018-02-27T16:51:07.401Z,42.85
2018-02-27T16:53:34.651Z,35.08
2018-02-27T16:56:01.682Z,39.08
2018-02-27T16:58:28.593Z,36.95
2018-02-27T17:00:55.650Z,40.50
2018-02-27T17:03:22.725Z,40.53
2018-02-27T17:05:49.642Z,41.17
2018-02-27T17:08:16.588Z,49.60
2018-02-27T17:10:44.079Z,39.53
2018-02-27T17:13:11.110Z,42.62
2018-02-27T17:15:42.175Z,46.20
2018-02-27T17:18:09.470Z,38.65
2018-02-27T17:20:36.670Z,37.28
2018-02-27T17:23:04.040Z,40.00
2018-02-27T17:25:31.176Z,38.53
2018-02-27T17:27:58.164Z,40.30
2018-02-27T17:30:46.720Z,45.80
2018-02-27T17:33:13.897Z,43.42
2018-02-27T17:35:40.849Z,35.05
2018-02-27T17:38:08.333Z,37.58
2018-02-27T17:40:36.409Z,35.40
2018-02-27T17:43:03.387Z,38.13
2018-02-27T17:45:30.631Z,38.55
2018-02-27T17:47:57.816Z,48.97
2018-02-27T17:50:24.864Z,38.90
2018-02-27T17:52:52.035Z,37.58
2018-02-27T17:55:18.909Z,40.92
2018-02-27T17:57:45.673Z,34.65
2018-02-27T18:00:12.475Z,35.30
2018-02-27T18:02:39.362Z,36.08
2018-02-27T18:05:06.142Z,40.45
2018-02-27T18:07:32.978Z,39.58
2018-02-27T18:09:59.894Z,36.35
2018-02-27T18:12:26.648Z,39.78
2018-02-27T18:14:53.367Z,37.40
2018-02-27T18:17:20.161Z,41.50
2018-02-27T18:19:46.905Z,41.70
2018-02-27T18:22:13.638Z,39.50
2018-02-27T18:24:40.456Z,42.67
2018-02-27T18:27:07.192Z,34.10
2018-02-27T18:29:33.951Z,39.30
2018-02-27T18:32:00.717Z,42.85
2018-02-27T18:34:27.542Z,41.03
2018-02-27T18:36:54.300Z,40.47
2018-02-27T18:39:21.039Z,36.83
2018-02-27T18:42:00.718Z,37.10
2018-02-27T18:44:37.652Z,31.67
2018-02-27T18:47:04.438Z,33.67
2018-02-27T18:49:31.164Z,35.30
2018-02-27T18:51:57.914Z,33.20
2018-02-27T18:54:24.674Z,40.33
2018-02-27T18:56:51.509Z,29.92
2018-02-27T18:59:18.272Z,29.90
2018-02-27T19:01:45.243Z,26.25
2018-02-27T19:04:12.035Z,29.50
2018-02-27T19:06:38.818Z,28.60
2018-02-27T19:09:05.580Z,30.30
2018-02-27T19:11:32.336Z,31.40
2018-02-27T19:13:59.103Z,35.83
2018-02-27T19:16:25.854Z,33.92
2018-02-27T19:18:52.608Z,31.23
2018-02-27T19:21:19.359Z,30.23
2018-02-27T19:23:46.164Z,29.98
2018-02-27T19:26:12.977Z,25.55
2018-02-27T19:28:40.400Z,29.40
2018-02-27T19:31:07.195Z,23.52
2018-02-27T19:33:33.925Z,27.92
2018-02-27T19:36:00.717Z,28.62
2018-02-27T19:38:27.483Z,23.30
2018-02-27T19:40:54.282Z,26.55
2018-02-27T19:43:21.061Z,26.80
2018-02-27T19:45:47.871Z,27.05
2018-02-27T19:48:14.751Z,27.73
2018-02-27T19:50:41.746Z,32.50
2018-02-27T19:53:08.630Z,22.95
2018-02-27T19:55:35.400Z,28.73
2018-02-27T19:58:02.503Z,27.98
2018-02-27T20:00:30.242Z,27.42
2018-02-27T20:02:57.060Z,33.20
2018-02-27T20:05:23.883Z,29.73
2018-02-27T20:07:50.632Z,22.37
2018-02-27T20:10:56.201Z,23.77
2018-02-27T20:13:23.012Z,31.20
2018-02-27T20:15:50.148Z,25.20
2018-02-27T20:18:16.970Z,31.23
2018-02-27T20:20:43.978Z,21.55
2018-02-27T20:23:16.842Z,23.80
2018-02-27T20:25:43.713Z,27.30
2018-02-27T20:28:10.499Z,23.92
2018-02-27T20:30:37.301Z,25.60
2018-02-27T20:33:04.089Z,27.30
2018-02-27T20:35:31.350Z,31.37
2018-02-27T20:37:58.118Z,27.15
2018-02-27T20:40:24.866Z,28.30
2018-02-27T20:42:52.030Z,22.55
2018-02-27T20:45:18.789Z,22.30
2018-02-27T20:47:45.564Z,24.65
2018-02-27T20:50:12.352Z,28.83
2018-02-27T20:52:39.240Z,25.70
2018-02-27T20:55:06.022Z,25.20
2018-02-27T20:57:32.832Z,35.45
2018-02-27T20:59:59.881Z,27.20
2018-02-27T21:02:26.660Z,27.80
2018-02-27T21:04:53.404Z,27.62
2018-02-27T21:07:20.289Z,23.80
2018-02-27T21:09:47.045Z,25.55
2018-02-27T21:12:13.988Z,23.65
2018-02-27T21:14:40.770Z,25.20
2018-02-27T21:17:07.524Z,26.15
2018-02-27T21:19:34.328Z,30.20
2018-02-27T21:22:01.165Z,30.48
2018-02-27T21:24:28.011Z,23.92
2018-02-27T21:26:54.797Z,34.67
2018-02-27T21:29:21.572Z,31.17
2018-02-27T21:31:48.373Z,43.72
2018-02-27T21:34:15.107Z,30.42
2018-02-27T21:36:41.883Z,34.53
2018-02-27T21:39:08.625Z,33.97
2018-02-27T21:41:35.377Z,27.13
2018-02-27T21:44:02.181Z,34.47
2018-02-27T21:46:28.965Z,30.45
2018-02-27T21:48:55.830Z,26.33
2018-02-27T21:51:22.617Z,25.85
2018-02-27T21:53:49.349Z,24.92
2018-02-27T21:56:16.092Z,26.33
2018-02-27T21:58:42.864Z,34.28
2018-02-27T22:01:09.638Z,22.58
2018-02-27T22:03:36.410Z,24.30
2018-02-27T22:06:03.209Z,29.12
2018-02-27T22:08:29.963Z,28.40
2018-02-27T22:10:56.725Z,24.80
2018-02-27T22:13:23.483Z,26.65
2018-02-27T22:15:50.351Z,30.48
2018-02-27T22:18:17.072Z,26.33
2018-02-27T22:20:43.840Z,28.27
2018-02-27T22:23:10.612Z,27.73
2018-02-27T22:25:37.450Z,29.25
2018-02-27T22:28:04.287Z,29.70
2018-02-27T22:30:31.038Z,29.77
2018-02-27T22:32:57.808Z,31.02
2018-02-27T22:35:24.556Z,30.42
2018-02-27T22:37:51.279Z,23.60
2018-02-27T22:40:18.101Z,25.83
2018-02-27T22:42:44.844Z,38.03
2018-02-27T22:45:11.623Z,28.00
2018-02-27T22:47:38.454Z,31.00
2018-02-27T22:50:05.208Z,24.42
2018-02-27T22:52:31.967Z,23.83
2018-02-27T22:54:58.702Z,26.67
2018-02-27T22:57:25.475Z,27.55
2018-02-27T22:59:52.225Z,23.23
2018-02-27T23:02:18.940Z,24.12
2018-02-27T23:04:45.684Z,25.77
2018-02-27T23:07:12.402Z,27.80
2018-02-27T23:09:39.174Z,26.33
2018-02-27T23:12:05.925Z,24.85
2018-02-27T23:14:32.655Z,23.20
2018-02-27T23:16:59.486Z,27.08
2018-02-27T23:19:26.225Z,30.17
2018-02-27T23:21:53.014Z,29.83
2018-02-27T23:24:21.059Z,29.83
2018-02-27T23:26:49.747Z,28.25
2018-02-27T23:29:16.854Z,26.17
2018-02-27T23:31:44.259Z,31.40
2018-02-27T23:34:14.402Z,29.00
2018-02-27T23:36:41.119Z,27.85
2018-02-27T23:39:07.847Z,27.30
2018-02-27T23:41:34.625Z,28.23
2018-02-27T23:44:01.320Z,34.28
2018-02-27T23:46:28.072Z,30.02
2018-02-27T23:48:54.829Z,30.33
2018-02-27T23:51:21.558Z,26.05
2018-02-27T23:53:48.305Z,31.33
2018-02-27T23:56:15.052Z,30.48
2018-02-27T23:58:41.835Z,23.35
